Time;durP1;ratioP1;P1;durP2;ratioP2;P2;SDS_P1;SDS_P2;PMS_P1;PMS_P2;Temp;Humidity;BMP_temperature;BMP_pressure;BME280_temperature;BME280_humidity;BME280_pressure;Samples;Min_cycle;Max_cycle;Signal;HPM_P1;HPM_P2
2022/08/25 00:01:44;;;;;;;;;;;;;;;;;;5020080;28;19920;-83
2022/08/25 00:04:31;;;;;;;;;;;;;;;;;;5010048;28;19916;-80
2022/08/25 00:07:17;;;;;;;;;;;;;;;;;;5029808;28;20289;-80
2022/08/25 00:10:04;;;;;;;;;;;;;;;;;;5026490;28;19913;-79
2022/08/25 00:12:50;;;;;;;;;;;;;;;;;;5025403;28;19917;-79
2022/08/25 00:15:37;;;;;;;;;;;;;;;;;;5021294;28;19913;-81
2022/08/25 00:18:23;;;;;;;;;;;;;;;;;;5026745;28;19909;-81
2022/08/25 00:21:10;;;;;;;;;;;;;;;;;;5028380;28;19909;-81
2022/08/25 00:23:56;;;;;;;;;;;;;;;;;;5021624;28;19919;-79
2022/08/25 00:26:43;;;;;;;;;;;;;;;;;;5027333;28;19921;-81
2022/08/25 00:29:29;;;;;;;;;;;;;;;;;;5029482;28;20380;-82
2022/08/25 00:32:17;;;;;;;;;;;;;;;;;;5031223;28;19909;-82
2022/08/25 00:35:03;;;;;;;;;;;;;;;;;;5009156;28;19916;-83
2022/08/25 00:37:50;;;;;;;;;;;;;;;;;;5029172;28;20281;-83
2022/08/25 00:40:38;;;;;;;;;;;;;;;;;;5029268;28;19920;-83
2022/08/25 00:43:26;;;;;;;;;;;;;;;;;;5023387;28;19915;-81
2022/08/25 00:46:12;;;;;;;;;;;;;;;;;;5014553;28;19928;-81
2022/08/25 00:48:59;;;;;;;;;;;;;;;;;;5019537;28;20340;-81
2022/08/25 00:51:45;;;;;;;;;;;;;;;;;;5011642;28;19924;-81
2022/08/25 00:54:32;;;;;;;;;;;;;;;;;;5031632;28;19917;-81
2022/08/25 00:57:18;;;;;;;;;;;;;;;;;;5015292;28;19913;-81
2022/08/25 01:00:05;;;;;;;;;;;;;;;;;;5016325;28;19925;-81
2022/08/25 01:02:51;;;;;;;;;;;;;;;;;;5022588;28;19909;-81
2022/08/25 01:05:38;;;;;;;;;;;;;;;;;;5017367;28;20611;-81
2022/08/25 01:08:25;;;;;;;;;;;;;;;;;;5016343;28;19929;-81
2022/08/25 01:11:11;;;;;;;;;;;;;;;;;;5031098;28;19914;-80
2022/08/25 01:14:01;;;;;;;;;;;;;;;;;;5013251;28;19926;-80
2022/08/25 01:16:48;;;;;;;;;;;;;;;;;;5023223;28;20437;-82
2022/08/25 01:19:34;;;;;;;;;;;;;;;;;;5022024;28;19917;-82
2022/08/25 01:22:21;;;;;;;;;;;;;;;;;;5009365;28;20529;-81
2022/08/25 01:25:07;;;;;;;;;;;;;;;;;;5028091;28;19940;-81
2022/08/25 01:27:54;;;;;;;;;;;;;;;;;;5010304;28;19924;-81
2022/08/25 01:30:40;;;;;;;;;;;;;;;;;;5010463;28;20294;-82
2022/08/25 01:33:27;;;;;;;;;;;;;;;;;;5031617;28;19913;-81
2022/08/25 01:36:13;;;;;;;;;;;;;;;;;;5028586;28;19913;-80
2022/08/25 01:39:00;;;;;;;;;;;;;;;;;;5028043;28;19920;-81
2022/08/25 01:41:46;;;;;;;;;;;;;;;;;;5007139;28;19913;-82
2022/08/25 01:44:34;;;;;;;;;;;;;;;;;;5027934;28;19913;-81
2022/08/25 01:47:21;;;;;;;;;;;;;;;;;;5025694;28;19916;-81
2022/08/25 01:50:08;;;;;;;;;;;;;;;;;;5028166;28;19917;-81
2022/08/25 01:52:54;;;;;;;;;;;;;;;;;;5019312;28;19910;-81
2022/08/25 01:56:00;;;;;;;;;;;;;;;;;;5007753;28;19913;-83
2022/08/25 01:58:47;;;;;;;;;;;;;;;;;;5025945;28;19917;-81
2022/08/25 02:01:34;;;;;;;;;;;;;;;;;;5024426;28;19924;-81
2022/08/25 02:04:21;;;;;;;;;;;;;;;;;;5018138;28;20472;-82
2022/08/25 02:07:07;;;;;;;;;;;;;;;;;;5023109;28;19913;-83
2022/08/25 02:09:53;;;;;;;;;;;;;;;;;;5028630;28;19925;-81
2022/08/25 02:12:40;;;;;;;;;;;;;;;;;;5013399;28;20301;-82
2022/08/25 02:15:26;;;;;;;;;;;;;;;;;;5005499;28;19927;-82
2022/08/25 02:18:13;;;;;;;;;;;;;;;;;;5011094;28;20396;-82
2022/08/25 02:20:59;;;;;;;;;;;;;;;;;;5012933;28;19925;-81
2022/08/25 02:23:46;;;;;;;;;;;;;;;;;;5003695;28;19916;-82
2022/08/25 02:26:32;;;;;;;;;;;;;;;;;;5013040;28;19916;-81
2022/08/25 02:29:19;;;;;;;;;;;;;;;;;;5014071;28;19917;-81
2022/08/25 02:32:05;;;;;;;;;;;;;;;;;;5005761;28;19909;-81
2022/08/25 02:34:52;;;;;;;;;;;;;;;;;;5002583;28;19914;-81
2022/08/25 02:37:38;;;;;;;;;;;;;;;;;;5015746;28;19920;-81
2022/08/25 02:40:25;;;;;;;;;;;;;;;;;;5008917;28;19910;-83
2022/08/25 02:43:11;;;;;;;;;;;;;;;;;;5024221;28;19920;-83
2022/08/25 02:45:58;;;;;;;;;;;;;;;;;;5010603;28;19913;-81
2022/08/25 02:48:45;;;;;;;;;;;;;;;;;;5028473;28;19925;-82
2022/08/25 02:51:32;;;;;;;;;;;;;;;;;;5014584;28;19909;-82
2022/08/25 02:54:19;;;;;;;;;;;;;;;;;;5017079;28;19909;-83
2022/08/25 02:57:05;;;;;;;;;;;;;;;;;;5016049;28;19915;-82
2022/08/25 02:59:52;;;;;;;;;;;;;;;;;;5014419;28;19913;-81
2022/08/25 03:02:40;;;;;;;;;;;;;;;;;;5014425;28;19909;-81
2022/08/25 03:05:26;;;;;;;;;;;;;;;;;;5029395;28;19919;-82
2022/08/25 03:08:13;;;;;;;;;;;;;;;;;;5013086;28;19936;-82
2022/08/25 03:10:59;;;;;;;;;;;;;;;;;;5013478;28;19920;-82
2022/08/25 03:13:46;;;;;;;;;;;;;;;;;;5027435;28;19927;-82
2022/08/25 03:16:33;;;;;;;;;;;;;;;;;;5027984;28;19910;-84
2022/08/25 03:19:19;;;;;;;;;;;;;;;;;;5008709;28;19913;-83
2022/08/25 03:22:05;;;;;;;;;;;;;;;;;;5009505;28;19909;-82
2022/08/25 03:26:52;;;;;;;;;;;;;;;;;;5000820;28;19913;-83
2022/08/25 03:27:59;;;;;;;;;;;;;;;;;;5019614;28;19923;-85
2022/08/25 03:30:45;;;;;;;;;;;;;;;;;;5032490;28;19913;-84
2022/08/25 03:33:32;;;;;;;;;;;;;;;;;;5013707;28;19919;-81
2022/08/25 03:36:18;;;;;;;;;;;;;;;;;;5009117;28;19909;-80
2022/08/25 03:39:07;;;;;;;;;;;;;;;;;;5030716;28;20569;-80
2022/08/25 03:41:54;;;;;;;;;;;;;;;;;;5025876;28;19909;-79
2022/08/25 03:44:41;;;;;;;;;;;;;;;;;;5026215;28;19909;-80
2022/08/25 03:47:28;;;;;;;;;;;;;;;;;;5011795;28;20388;-80
2022/08/25 03:50:14;;;;;;;;;;;;;;;;;;5009965;28;19925;-81
2022/08/25 03:53:01;;;;;;;;;;;;;;;;;;5030232;28;19944;-80
2022/08/25 03:55:47;;;;;;;;;;;;;;;;;;5000070;28;19920;-80
2022/08/25 03:58:34;;;;;;;;;;;;;;;;;;5023048;28;19919;-80
2022/08/25 04:01:20;;;;;;;;;;;;;;;;;;5010198;28;19936;-80
2022/08/25 04:04:07;;;;;;;;;;;;;;;;;;5028683;28;19925;-80
2022/08/25 04:06:53;;;;;;;;;;;;;;;;;;5027148;28;19921;-81
2022/08/25 04:09:40;;;;;;;;;;;;;;;;;;5029179;28;19925;-80
2022/08/25 04:12:26;;;;;;;;;;;;;;;;;;5002490;28;19918;-81
2022/08/25 04:15:13;;;;;;;;;;;;;;;;;;5026386;28;19913;-82
2022/08/25 04:17:59;;;;;;;;;;;;;;;;;;5013052;28;19909;-84
2022/08/25 04:20:46;;;;;;;;;;;;;;;;;;5018926;28;19917;-86
2022/08/25 04:23:32;;;;;;;;;;;;;;;;;;5019442;28;19909;-86
2022/08/25 04:26:19;;;;;;;;;;;;;;;;;;5018217;28;19913;-84
2022/08/25 04:29:11;;;;;;;;;;;;;;;;;;5035144;28;19918;-90
2022/08/25 04:31:58;;;;;;;;;;;;;;;;;;5015365;28;20258;-83
2022/08/25 04:34:44;;;;;;;;;;;;;;;;;;5032426;28;19919;-81
2022/08/25 04:37:32;;;;;;;;;;;;;;;;;;5016833;28;20725;-84
2022/08/25 04:40:19;;;;;;;;;;;;;;;;;;5016319;28;19909;-83
2022/08/25 04:43:05;;;;;;;;;;;;;;;;;;5011407;28;19918;-82
2022/08/25 04:45:52;;;;;;;;;;;;;;;;;;5016306;28;19909;-87
2022/08/25 04:48:41;;;;;;;;;;;;;;;;;;5030039;28;19921;-80
2022/08/25 04:51:28;;;;;;;;;;;;;;;;;;5007846;28;19913;-82
2022/08/25 04:54:20;;;;;;;;;;;;;;;;;;5017580;28;19924;-80
2022/08/25 04:57:07;;;;;;;;;;;;;;;;;;5030046;28;19921;-81
2022/08/25 04:59:54;;;;;;;;;;;;;;;;;;5011746;28;19909;-81
2022/08/25 05:02:46;;;;;;;;;;;;;;;;;;5030879;28;20679;-83
2022/08/25 05:05:32;;;;;;;;;;;;;;;;;;5007734;28;19909;-82
2022/08/25 05:08:19;;;;;;;;;;;;;;;;;;5027061;28;19921;-82
2022/08/25 05:11:05;;;;;;;;;;;;;;;;;;5014637;28;19924;-83
2022/08/25 05:13:52;;;;;;;;;;;;;;;;;;5022145;28;19956;-81
2022/08/25 05:16:39;;;;;;;;;;;;;;;;;;5021772;28;19913;-83
2022/08/25 05:19:25;;;;;;;;;;;;;;;;;;5018210;28;19920;-82
2022/08/25 05:22:12;;;;;;;;;;;;;;;;;;5050782;28;19912;-85
2022/08/25 05:24:58;;;;;;;;;;;;;;;;;;5027178;28;19931;-85
2022/08/25 05:27:45;;;;;;;;;;;;;;;;;;5039654;28;20268;-82
2022/08/25 05:30:31;;;;;;;;;;;;;;;;;;5054098;28;19916;-82
2022/08/25 05:33:19;;;;;;;;;;;;;;;;;;5038613;28;20376;-83
2022/08/25 05:36:05;;;;;;;;;;;;;;;;;;5030469;28;19916;-82
2022/08/25 05:38:52;;;;;;;;;;;;;;;;;;5029024;28;19947;-83
2022/08/25 05:41:38;;;;;;;;;;;;;;;;;;5036596;28;19913;-83
2022/08/25 05:44:25;;;;;;;;;;;;;;;;;;5033487;28;20296;-83
2022/08/25 05:47:12;;;;;;;;;;;;;;;;;;5034117;28;19908;-83
2022/08/25 05:50:00;;;;;;;;;;;;;;;;;;5041776;28;20388;-83
2022/08/25 05:52:46;;;;;;;;;;;;;;;;;;5042792;28;19909;-83
2022/08/25 05:55:33;;;;;;;;;;;;;;;;;;5049025;28;20348;-84
2022/08/25 05:58:19;;;;;;;;;;;;;;;;;;5030726;28;19920;-83
2022/08/25 06:04:11;;;;;;;;;;;;;;;;;;5047133;28;19920;-81
2022/08/25 06:06:58;;;;;;;;;;;;;;;;;;5044284;28;19913;-82
2022/08/25 06:09:47;;;;;;;;;;;;;;;;;;5026303;28;19929;-80
2022/08/25 06:12:35;;;;;;;;;;;;;;;;;;5041267;28;19921;-82
2022/08/25 06:15:28;;;;;;;;;;;;;;;;;;5103612;27;19942;-81
2022/08/25 06:18:15;;;;;;;;;;;;;;;;;;5086012;28;19912;-85
2022/08/25 06:21:02;;;;;;;;;;;;;;;;;;5086053;28;19916;-85
2022/08/25 06:23:49;;;;;;;;;;;;;;;;;;5112000;27;20283;-85
2022/08/25 06:26:35;;;;;;;;;;;;;;;;;;5077954;28;19913;-85
2022/08/25 06:29:23;;;;;;;;;;;;;;;;;;5091583;28;19915;-85
2022/08/25 06:32:10;;;;;;;;;;;;;;;;;;5086882;28;19923;-85
2022/08/25 06:34:57;;;;;;;;;;;;;;;;;;5097659;28;20423;-85
2022/08/25 06:37:44;;;;;;;;;;;;;;;;;;5086202;28;20368;-85
2022/08/25 06:40:30;;;;;;;;;;;;;;;;;;5109887;28;19916;-84
2022/08/25 06:43:17;;;;;;;;;;;;;;;;;;5076992;28;19912;-84
2022/08/25 06:46:03;;;;;;;;;;;;;;;;;;5098701;28;19912;-84
2022/08/25 06:48:50;;;;;;;;;;;;;;;;;;5096788;28;19978;-85
2022/08/25 06:51:36;;;;;;;;;;;;;;;;;;5086852;28;20394;-84
2022/08/25 06:54:23;;;;;;;;;;;;;;;;;;5091081;28;19923;-84
2022/08/25 06:57:09;;;;;;;;;;;;;;;;;;5121714;27;19934;-84
2022/08/25 06:59:56;;;;;;;;;;;;;;;;;;5085106;28;19920;-84
2022/08/25 07:02:42;;;;;;;;;;;;;;;;;;5084657;28;20291;-83
2022/08/25 07:05:29;;;;;;;;;;;;;;;;;;5100839;28;19918;-85
2022/08/25 07:08:15;;;;;;;;;;;;;;;;;;5115665;28;19915;-84
2022/08/25 07:11:02;;;;;;;;;;;;;;;;;;5111621;27;19908;-84
2022/08/25 07:13:49;;;;;;;;;;;;;;;;;;5113336;28;19920;-84
2022/08/25 07:16:35;;;;;;;;;;;;;;;;;;5122131;27;20599;-85
2022/08/25 07:19:22;;;;;;;;;;;;;;;;;;5092001;28;19912;-84
2022/08/25 07:22:08;;;;;;;;;;;;;;;;;;5078046;28;19908;-83
2022/08/25 07:24:55;;;;;;;;;;;;;;;;;;5105762;28;19908;-84
2022/08/25 07:27:41;;;;;;;;;;;;;;;;;;5097961;28;19912;-83
2022/08/25 07:30:28;;;;;;;;;;;;;;;;;;5079027;28;19931;-84
2022/08/25 07:33:14;;;;;;;;;;;;;;;;;;5076281;28;19908;-83
2022/08/25 07:36:01;;;;;;;;;;;;;;;;;;5091985;28;19909;-82
2022/08/25 07:38:48;;;;;;;;;;;;;;;;;;5079140;28;20391;-83
2022/08/25 07:41:34;;;;;;;;;;;;;;;;;;5072870;28;19920;-83
2022/08/25 07:44:20;;;;;;;;;;;;;;;;;;5092165;28;20376;-84
2022/08/25 07:47:07;;;;;;;;;;;;;;;;;;5073679;28;19916;-83
2022/08/25 07:49:54;;;;;;;;;;;;;;;;;;5104751;28;20359;-84
2022/08/25 07:52:41;;;;;;;;;;;;;;;;;;5089467;27;19912;-84
2022/08/25 07:55:29;;;;;;;;;;;;;;;;;;5089856;28;19916;-83
2022/08/25 07:58:17;;;;;;;;;;;;;;;;;;5092950;28;19908;-83
2022/08/25 08:01:03;;;;;;;;;;;;;;;;;;5092970;28;19916;-83
2022/08/25 08:03:50;;;;;;;;;;;;;;;;;;5104150;28;20453;-84
2022/08/25 08:06:36;;;;;;;;;;;;;;;;;;5085135;28;20544;-84
2022/08/25 08:09:23;;;;;;;;;;;;;;;;;;5077468;28;19915;-83
2022/08/25 08:12:10;;;;;;;;;;;;;;;;;;5104462;28;19915;-85
2022/08/25 08:14:59;;;;;;;;;;;;;;;;;;5065741;28;20355;-82
2022/08/25 08:17:45;;;;;;;;;;;;;;;;;;5075436;28;19908;-85
2022/08/25 08:20:33;;;;;;;;;;;;;;;;;;5093188;28;19916;-84
2022/08/25 08:23:19;;;;;;;;;;;;;;;;;;5075863;28;19908;-85
2022/08/25 08:26:06;;;;;;;;;;;;;;;;;;5074256;28;19908;-83
2022/08/25 08:28:52;;;;;;;;;;;;;;;;;;5075633;28;19912;-82
2022/08/25 08:31:39;;;;;;;;;;;;;;;;;;5090509;28;19912;-83
2022/08/25 08:34:25;;;;;;;;;;;;;;;;;;5092095;28;19924;-83
2022/08/25 08:37:12;;;;;;;;;;;;;;;;;;5084855;28;19916;-83
2022/08/25 08:40:00;;;;;;;;;;;;;;;;;;5100027;27;19908;-82
2022/08/25 08:42:46;;;;;;;;;;;;;;;;;;5083779;28;19912;-83
2022/08/25 08:45:33;;;;;;;;;;;;;;;;;;5103958;28;20288;-83
2022/08/25 08:48:19;;;;;;;;;;;;;;;;;;5091865;28;19919;-82
2022/08/25 08:51:06;;;;;;;;;;;;;;;;;;5088244;28;19908;-82
2022/08/25 08:53:53;;;;;;;;;;;;;;;;;;5089638;28;20310;-84
2022/08/25 08:56:40;;;;;;;;;;;;;;;;;;5073572;28;20388;-83
2022/08/25 08:59:26;;;;;;;;;;;;;;;;;;5073216;28;19915;-83
2022/08/25 09:02:14;;;;;;;;;;;;;;;;;;5088910;28;20000;-84
2022/08/25 09:05:01;;;;;;;;;;;;;;;;;;5071462;28;19916;-84
2022/08/25 09:07:47;;;;;;;;;;;;;;;;;;5075423;28;19912;-83
2022/08/25 09:10:34;;;;;;;;;;;;;;;;;;5102770;28;19914;-83
2022/08/25 09:13:20;;;;;;;;;;;;;;;;;;5075497;28;19920;-83
2022/08/25 09:19:12;;;;;;;;;;;;;;;;;;5089341;28;19908;-83
2022/08/25 09:21:59;;;;;;;;;;;;;;;;;;5101498;28;19912;-83
2022/08/25 09:24:46;;;;;;;;;;;;;;;;;;5080463;28;19915;-83
2022/08/25 09:27:32;;;;;;;;;;;;;;;;;;5074841;28;19908;-83
2022/08/25 09:30:19;;;;;;;;;;;;;;;;;;5075457;28;19915;-84
2022/08/25 09:33:06;;;;;;;;;;;;;;;;;;5088159;28;19915;-82
2022/08/25 09:35:52;;;;;;;;;;;;;;;;;;5089045;28;19920;-85
2022/08/25 09:38:39;;;;;;;;;;;;;;;;;;5097827;28;19918;-82
2022/08/25 09:41:25;;;;;;;;;;;;;;;;;;5094940;28;20398;-83
2022/08/25 09:44:12;;;;;;;;;;;;;;;;;;5076233;28;19912;-82
2022/08/25 09:47:00;;;;;;;;;;;;;;;;;;5103086;28;20279;-83
2022/08/25 09:49:48;;;;;;;;;;;;;;;;;;5091512;28;19923;-82
2022/08/25 09:52:34;;;;;;;;;;;;;;;;;;5090869;28;19908;-82
2022/08/25 09:55:21;;;;;;;;;;;;;;;;;;5091682;28;19961;-83
2022/08/25 09:58:07;;;;;;;;;;;;;;;;;;5078241;28;19920;-83
2022/08/25 10:00:53;;;;;;;;;;;;;;;;;;5091641;28;19915;-82
2022/08/25 10:03:40;;;;;;;;;;;;;;;;;;5075585;28;19918;-83
2022/08/25 10:06:26;;;;;;;;;;;;;;;;;;5104597;28;19919;-83
2022/08/25 10:09:14;;;;;;;;;;;;;;;;;;5104621;28;19912;-83
2022/08/25 10:12:01;;;;;;;;;;;;;;;;;;5077252;28;19919;-83
2022/08/25 10:14:48;;;;;;;;;;;;;;;;;;5074912;28;20299;-84
2022/08/25 10:17:34;;;;;;;;;;;;;;;;;;5088287;28;20284;-84
2022/08/25 10:20:21;;;;;;;;;;;;;;;;;;5101037;28;19909;-83
2022/08/25 10:23:07;;;;;;;;;;;;;;;;;;5091611;28;19912;-83
2022/08/25 10:25:53;;;;;;;;;;;;;;;;;;5075897;28;19931;-84
2022/08/25 10:28:40;;;;;;;;;;;;;;;;;;5075508;28;19919;-82
2022/08/25 10:31:26;;;;;;;;;;;;;;;;;;5064212;28;19915;-82
2022/08/25 10:34:13;;;;;;;;;;;;;;;;;;5074845;28;19912;-82
2022/08/25 10:37:00;;;;;;;;;;;;;;;;;;5075156;28;19922;-82
2022/08/25 10:39:46;;;;;;;;;;;;;;;;;;5065876;28;20257;-82
2022/08/25 10:42:33;;;;;;;;;;;;;;;;;;5100679;28;19915;-83
2022/08/25 10:48:24;;;;;;;;;;;;;;;;;;5089326;28;19908;-83
2022/08/25 10:51:11;;;;;;;;;;;;;;;;;;5099894;28;19912;-83
2022/08/25 10:53:57;;;;;;;;;;;;;;;;;;5094487;28;20026;-82
2022/08/25 10:56:44;;;;;;;;;;;;;;;;;;5093885;28;19912;-82
2022/08/25 10:59:30;;;;;;;;;;;;;;;;;;5076438;28;20647;-82
2022/08/25 11:02:17;;;;;;;;;;;;;;;;;;5092889;28;19912;-83
2022/08/25 11:05:04;;;;;;;;;;;;;;;;;;5098735;28;19916;-82
2022/08/25 11:07:50;;;;;;;;;;;;;;;;;;5102797;27;21028;-83
2022/08/25 11:10:37;;;;;;;;;;;;;;;;;;5099634;28;19915;-83
2022/08/25 11:13:24;;;;;;;;;;;;;;;;;;5078475;28;19927;-83
2022/08/25 11:16:12;;;;;;;;;;;;;;;;;;5108127;27;19930;-83
2022/08/25 11:18:58;;;;;;;;;;;;;;;;;;5103254;27;19908;-82
2022/08/25 11:21:45;;;;;;;;;;;;;;;;;;5095354;28;19915;-83
2022/08/25 11:24:31;;;;;;;;;;;;;;;;;;5106353;27;19916;-83
2022/08/25 11:27:18;;;;;;;;;;;;;;;;;;5081213;28;20368;-83
2022/08/25 11:30:05;;;;;;;;;;;;;;;;;;5078638;28;19914;-82
2022/08/25 11:32:52;;;;;;;;;;;;;;;;;;5100053;28;20264;-82
2022/08/25 11:35:38;;;;;;;;;;;;;;;;;;5074584;28;19927;-84
2022/08/25 11:38:25;;;;;;;;;;;;;;;;;;5077717;28;19909;-82
2022/08/25 11:41:11;;;;;;;;;;;;;;;;;;5080452;28;19912;-81
2022/08/25 11:43:58;;;;;;;;;;;;;;;;;;5091335;28;19908;-81
2022/08/25 11:46:44;;;;;;;;;;;;;;;;;;5104012;27;19908;-83
2022/08/25 11:49:31;;;;;;;;;;;;;;;;;;5076498;28;19919;-83
2022/08/25 11:52:17;;;;;;;;;;;;;;;;;;5081019;28;19907;-83
2022/08/25 11:55:04;;;;;;;;;;;;;;;;;;5084925;28;19927;-83
2022/08/25 11:57:50;;;;;;;;;;;;;;;;;;5072127;28;19912;-83
2022/08/25 12:00:37;;;;;;;;;;;;;;;;;;5098664;28;19913;-82
2022/08/25 12:03:24;;;;;;;;;;;;;;;;;;5102002;28;19915;-82
2022/08/25 12:06:11;;;;;;;;;;;;;;;;;;5087613;28;19916;-83
2022/08/25 12:08:57;;;;;;;;;;;;;;;;;;5077220;28;20306;-82
2022/08/25 12:11:44;;;;;;;;;;;;;;;;;;5069930;28;20355;-82
2022/08/25 12:14:30;;;;;;;;;;;;;;;;;;5105083;27;19943;-83
2022/08/25 12:17:17;;;;;;;;;;;;;;;;;;5084700;28;19919;-84
2022/08/25 12:20:03;;;;;;;;;;;;;;;;;;5075540;28;19908;-83
2022/08/25 12:22:50;;;;;;;;;;;;;;;;;;5092654;28;19990;-83
2022/08/25 12:25:37;;;;;;;;;;;;;;;;;;5100600;28;19916;-84
2022/08/25 12:28:23;;;;;;;;;;;;;;;;;;5086499;28;19918;-83
2022/08/25 12:31:10;;;;;;;;;;;;;;;;;;5100378;28;20382;-84
2022/08/25 12:33:58;;;;;;;;;;;;;;;;;;5091242;28;19924;-83
2022/08/25 12:36:44;;;;;;;;;;;;;;;;;;5100391;28;19916;-83
2022/08/25 12:39:31;;;;;;;;;;;;;;;;;;5095277;28;20516;-84
2022/08/25 12:42:18;;;;;;;;;;;;;;;;;;5077340;28;20421;-84
2022/08/25 12:45:04;;;;;;;;;;;;;;;;;;5091770;28;20344;-83
2022/08/25 12:47:52;;;;;;;;;;;;;;;;;;5078110;28;19912;-84
2022/08/25 12:50:38;;;;;;;;;;;;;;;;;;5090080;28;19923;-81
2022/08/25 12:53:25;;;;;;;;;;;;;;;;;;5098492;27;19912;-79
2022/08/25 12:56:11;;;;;;;;;;;;;;;;;;5084884;28;19917;-80
2022/08/25 12:58:58;;;;;;;;;;;;;;;;;;5084447;28;19916;-80
2022/08/25 13:01:44;;;;;;;;;;;;;;;;;;5087237;28;19916;-80
2022/08/25 13:04:31;;;;;;;;;;;;;;;;;;5082696;28;19935;-80
2022/08/25 13:07:17;;;;;;;;;;;;;;;;;;5074738;28;19912;-78
2022/08/25 13:10:04;;;;;;;;;;;;;;;;;;5082118;28;19912;-78
2022/08/25 13:12:50;;;;;;;;;;;;;;;;;;5091426;27;19916;-80
2022/08/25 13:15:37;;;;;;;;;;;;;;;;;;5087344;28;19988;-80
2022/08/25 13:18:23;;;;;;;;;;;;;;;;;;5073009;28;19912;-80
2022/08/25 13:21:10;;;;;;;;;;;;;;;;;;5086628;28;19908;-79
2022/08/25 13:23:56;;;;;;;;;;;;;;;;;;5076662;28;20408;-80
2022/08/25 13:26:43;;;;;;;;;;;;;;;;;;5085606;28;19908;-80
2022/08/25 13:29:29;;;;;;;;;;;;;;;;;;5085958;28;19916;-79
2022/08/25 13:32:16;;;;;;;;;;;;;;;;;;5076334;28;19915;-79
2022/08/25 13:35:02;;;;;;;;;;;;;;;;;;5092223;28;19928;-79
2022/08/25 13:37:49;;;;;;;;;;;;;;;;;;5072945;28;19916;-78
2022/08/25 13:40:35;;;;;;;;;;;;;;;;;;5088288;28;19915;-78
2022/08/25 13:43:22;;;;;;;;;;;;;;;;;;5100170;28;19912;-79
2022/08/25 13:46:08;;;;;;;;;;;;;;;;;;5099150;28;20378;-80
2022/08/25 13:48:55;;;;;;;;;;;;;;;;;;5101647;27;19916;-83
2022/08/25 13:51:41;;;;;;;;;;;;;;;;;;5100973;27;19914;-80
2022/08/25 13:54:28;;;;;;;;;;;;;;;;;;5076218;28;19919;-81
2022/08/25 13:57:14;;;;;;;;;;;;;;;;;;5105042;27;19916;-79
2022/08/25 14:00:01;;;;;;;;;;;;;;;;;;5098423;27;19908;-79
2022/08/25 14:02:48;;;;;;;;;;;;;;;;;;5083744;28;19924;-79
2022/08/25 14:05:34;;;;;;;;;;;;;;;;;;5100697;28;19919;-79
2022/08/25 14:08:21;;;;;;;;;;;;;;;;;;5097001;28;19912;-83
2022/08/25 14:11:08;;;;;;;;;;;;;;;;;;5103965;28;20287;-82
2022/08/25 14:13:54;;;;;;;;;;;;;;;;;;5087807;28;20006;-81
2022/08/25 14:16:40;;;;;;;;;;;;;;;;;;5089528;28;19924;-82
2022/08/25 14:19:27;;;;;;;;;;;;;;;;;;5063873;28;20368;-81
2022/08/25 14:22:14;;;;;;;;;;;;;;;;;;5074768;28;19914;-80
2022/08/25 14:25:01;;;;;;;;;;;;;;;;;;5086198;28;19912;-78
2022/08/25 14:27:48;;;;;;;;;;;;;;;;;;5090719;28;19924;-82
2022/08/25 14:30:34;;;;;;;;;;;;;;;;;;5082011;28;20316;-81
2022/08/25 14:33:21;;;;;;;;;;;;;;;;;;5094436;28;19913;-83
2022/08/25 14:36:07;;;;;;;;;;;;;;;;;;5086928;28;19924;-84
2022/08/25 14:38:54;;;;;;;;;;;;;;;;;;5090026;28;19934;-83
2022/08/25 14:41:40;;;;;;;;;;;;;;;;;;5079342;28;19935;-81
2022/08/25 14:44:27;;;;;;;;;;;;;;;;;;5107593;27;19923;-80
2022/08/25 14:47:13;;;;;;;;;;;;;;;;;;5104062;27;20318;-77
2022/08/25 14:50:00;;;;;;;;;;;;;;;;;;5094751;28;19918;-77
2022/08/25 14:52:47;;;;;;;;;;;;;;;;;;5104829;28;20375;-78
2022/08/25 14:55:33;;;;;;;;;;;;;;;;;;5090446;28;19998;-77
2022/08/25 14:58:20;;;;;;;;;;;;;;;;;;5065823;28;19912;-77
2022/08/25 15:01:06;;;;;;;;;;;;;;;;;;5085007;28;20287;-78
2022/08/25 15:03:52;;;;;;;;;;;;;;;;;;5105290;27;19922;-81
2022/08/25 15:06:41;;;;;;;;;;;;;;;;;;5107939;27;20283;-78
2022/08/25 15:09:27;;;;;;;;;;;;;;;;;;5078412;28;19922;-82
2022/08/25 15:12:14;;;;;;;;;;;;;;;;;;5109195;28;19918;-81
2022/08/25 15:15:00;;;;;;;;;;;;;;;;;;5076554;28;19927;-81
2022/08/25 15:17:47;;;;;;;;;;;;;;;;;;5111240;28;19918;-82
2022/08/25 15:20:34;;;;;;;;;;;;;;;;;;5112281;28;19934;-88
2022/08/25 15:23:21;;;;;;;;;;;;;;;;;;5125783;27;20291;-88
2022/08/25 15:26:08;;;;;;;;;;;;;;;;;;5117592;27;19918;-86
2022/08/25 15:28:54;;;;;;;;;;;;;;;;;;5117239;27;20351;-83
2022/08/25 15:31:41;;;;;;;;;;;;;;;;;;5098573;28;19938;-84
2022/08/25 15:34:27;;;;;;;;;;;;;;;;;;5095062;28;19924;-80
2022/08/25 15:37:14;;;;;;;;;;;;;;;;;;5115360;28;20339;-87
2022/08/25 15:40:01;;;;;;;;;;;;;;;;;;5094709;28;19919;-84
2022/08/25 15:42:47;;;;;;;;;;;;;;;;;;5111058;28;19914;-84
2022/08/25 15:45:34;;;;;;;;;;;;;;;;;;5099845;27;19908;-82
2022/08/25 15:48:21;;;;;;;;;;;;;;;;;;5113588;27;19912;-82
2022/08/25 15:51:07;;;;;;;;;;;;;;;;;;5108930;27;20282;-84
2022/08/25 15:53:54;;;;;;;;;;;;;;;;;;5110318;27;20371;-83
2022/08/25 15:56:42;;;;;;;;;;;;;;;;;;5110732;27;20244;-86
2022/08/25 15:59:29;;;;;;;;;;;;;;;;;;5111310;28;19911;-82
2022/08/25 16:02:16;;;;;;;;;;;;;;;;;;5109589;27;19912;-85
2022/08/25 16:05:03;;;;;;;;;;;;;;;;;;5097506;27;19935;-84
2022/08/25 16:07:49;;;;;;;;;;;;;;;;;;5113636;27;19912;-84
2022/08/25 16:10:36;;;;;;;;;;;;;;;;;;5112274;28;19912;-82
2022/08/25 16:13:22;;;;;;;;;;;;;;;;;;5112305;27;20315;-83
2022/08/25 16:16:09;;;;;;;;;;;;;;;;;;5115454;27;19920;-85
2022/08/25 16:18:55;;;;;;;;;;;;;;;;;;5121503;27;20390;-82
2022/08/25 16:21:42;;;;;;;;;;;;;;;;;;5104565;27;19916;-81
2022/08/25 16:24:28;;;;;;;;;;;;;;;;;;5095035;27;19908;-83
2022/08/25 16:27:14;;;;;;;;;;;;;;;;;;5094379;28;20283;-83
2022/08/25 16:30:01;;;;;;;;;;;;;;;;;;5106472;28;19908;-79
2022/08/25 16:32:51;;;;;;;;;;;;;;;;;;5110206;28;20387;-78
2022/08/25 16:35:37;;;;;;;;;;;;;;;;;;5123178;27;20426;-79
2022/08/25 16:38:24;;;;;;;;;;;;;;;;;;5106539;28;19915;-82
2022/08/25 16:41:10;;;;;;;;;;;;;;;;;;5095922;28;19942;-79
2022/08/25 16:43:57;;;;;;;;;;;;;;;;;;5108548;27;19912;-80
2022/08/25 16:46:43;;;;;;;;;;;;;;;;;;5122353;27;19922;-80
2022/08/25 16:49:30;;;;;;;;;;;;;;;;;;5120828;27;19922;-77
2022/08/25 16:55:22;;;;;;;;;;;;;;;;;;5103626;27;19930;-77
2022/08/25 16:58:08;;;;;;;;;;;;;;;;;;5108724;27;19919;-86
2022/08/25 17:00:55;;;;;;;;;;;;;;;;;;5109898;28;19927;-80
2022/08/25 17:03:45;;;;;;;;;;;;;;;;;;5109630;28;19966;-81
2022/08/25 17:06:31;;;;;;;;;;;;;;;;;;5107728;28;20382;-80
2022/08/25 17:09:18;;;;;;;;;;;;;;;;;;5109832;28;19918;-83
2022/08/25 17:12:04;;;;;;;;;;;;;;;;;;5110054;28;19912;-86
2022/08/25 17:14:51;;;;;;;;;;;;;;;;;;5110284;28;19939;-84
2022/08/25 17:17:37;;;;;;;;;;;;;;;;;;5122108;27;19922;-84
2022/08/25 17:20:24;;;;;;;;;;;;;;;;;;5108903;28;19915;-84
2022/08/25 17:23:10;;;;;;;;;;;;;;;;;;5127263;27;19926;-82
2022/08/25 17:25:57;;;;;;;;;;;;;;;;;;5107955;28;19934;-82
2022/08/25 17:28:44;;;;;;;;;;;;;;;;;;5094507;28;19937;-81
2022/08/25 17:31:30;;;;;;;;;;;;;;;;;;5093953;27;19919;-82
2022/08/25 17:34:17;;;;;;;;;;;;;;;;;;5098860;28;19915;-83
2022/08/25 17:37:04;;;;;;;;;;;;;;;;;;5109101;28;19945;-81
2022/08/25 17:39:50;;;;;;;;;;;;;;;;;;5109820;28;19915;-85
2022/08/25 17:42:37;;;;;;;;;;;;;;;;;;5127194;27;19931;-86
2022/08/25 17:45:23;;;;;;;;;;;;;;;;;;5109832;28;19926;-85
2022/08/25 17:48:11;;;;;;;;;;;;;;;;;;5095237;28;20386;-87
2022/08/25 17:50:58;;;;;;;;;;;;;;;;;;5106247;28;19918;-86
2022/08/25 17:53:44;;;;;;;;;;;;;;;;;;5113201;27;19916;-85
2022/08/25 17:56:32;;;;;;;;;;;;;;;;;;5114082;27;20292;-82
2022/08/25 17:59:18;;;;;;;;;;;;;;;;;;5106533;28;19908;-80
2022/08/25 18:02:05;;;;;;;;;;;;;;;;;;5092759;28;20379;-85
2022/08/25 18:04:51;;;;;;;;;;;;;;;;;;5108327;28;20231;-81
2022/08/25 18:07:38;;;;;;;;;;;;;;;;;;5108605;28;19911;-85
2022/08/25 18:10:24;;;;;;;;;;;;;;;;;;5093496;28;20252;-85
2022/08/25 18:13:11;;;;;;;;;;;;;;;;;;5095647;28;19914;-83
2022/08/25 18:15:57;;;;;;;;;;;;;;;;;;5087927;28;19920;-80
2022/08/25 18:18:44;;;;;;;;;;;;;;;;;;5107585;28;19931;-81
2022/08/25 18:21:30;;;;;;;;;;;;;;;;;;5097401;28;19977;-80
2022/08/25 18:24:17;;;;;;;;;;;;;;;;;;5107310;28;19915;-81
2022/08/25 18:27:03;;;;;;;;;;;;;;;;;;5089809;28;20383;-84
2022/08/25 18:29:50;;;;;;;;;;;;;;;;;;5084329;28;19912;-81
2022/08/25 18:32:36;;;;;;;;;;;;;;;;;;5122629;27;20282;-81
2022/08/25 18:35:23;;;;;;;;;;;;;;;;;;5108355;28;19919;-82
2022/08/25 18:41:15;;;;;;;;;;;;;;;;;;5108495;28;20272;-82
2022/08/25 18:44:01;;;;;;;;;;;;;;;;;;5107401;28;19918;-84
2022/08/25 18:46:48;;;;;;;;;;;;;;;;;;5119061;27;19911;-80
2022/08/25 18:49:35;;;;;;;;;;;;;;;;;;5092243;28;19908;-80
2022/08/25 18:52:22;;;;;;;;;;;;;;;;;;5106506;28;19923;-83
2022/08/25 18:55:11;;;;;;;;;;;;;;;;;;5125575;27;20397;-85
2022/08/25 18:57:57;;;;;;;;;;;;;;;;;;5082755;28;19919;-84
2022/08/25 19:00:44;;;;;;;;;;;;;;;;;;5107937;28;19916;-82
2022/08/25 19:03:31;;;;;;;;;;;;;;;;;;5107972;28;19918;-82
2022/08/25 19:06:17;;;;;;;;;;;;;;;;;;5105710;28;19949;-83
2022/08/25 19:09:04;;;;;;;;;;;;;;;;;;5113288;28;19919;-82
2022/08/25 19:11:51;;;;;;;;;;;;;;;;;;5108260;28;20351;-82
2022/08/25 19:14:37;;;;;;;;;;;;;;;;;;5115919;28;19931;-78